Time;durP1;ratioP1;P1;durP2;ratioP2;P2;SDS_P1;SDS_P2;PMS_P1;PMS_P2;Temp;Humidity;BMP_temperature;BMP_pressure;BME280_temperature;BME280_humidity;BME280_pressure;Samples;Min_cycle;Max_cycle;Signal;HPM_P1;HPM_P2
2023/10/03 02:53:22;;;;;;;36.65;25.67;;;16.40;99.90;;;;;;4848992;29;20066;-78
2023/10/03 02:55:52;;;;;;;37.15;26.25;;;16.40;99.90;;;;;;4809284;29;20071;-78
2023/10/03 02:58:20;;;;;;;38.50;25.08;;;16.50;99.90;;;;;;4808608;29;20457;-78
2023/10/03 03:00:47;;;;;;;37.88;25.23;;;16.50;99.90;;;;;;4824142;29;20038;-78
2023/10/03 03:03:14;;;;;;;35.42;24.75;;;16.50;99.90;;;;;;4820196;29;20409;-78
2023/10/03 03:05:42;;;;;;;38.05;25.58;;;16.50;99.90;;;;;;4801865;29;20045;-77
2023/10/03 03:10:44;;;;;;;38.60;25.20;;;16.50;99.90;;;;;;4810487;29;20060;-77
2023/10/03 03:13:18;;;;;;;32.90;23.90;;;16.50;99.90;;;;;;4822395;29;20133;-77
2023/10/03 03:15:51;;;;;;;37.22;24.73;;;16.60;99.90;;;;;;4792612;29;20052;-77
2023/10/03 03:18:20;;;;;;;35.03;24.77;;;16.60;99.90;;;;;;4811696;29;20421;-77
2023/10/03 03:20:51;;;;;;;33.08;23.48;;;16.60;99.90;;;;;;4813034;29;20538;-77
2023/10/03 03:23:17;;;;;;;36.67;24.50;;;16.60;99.90;;;;;;4808379;29;20043;-77
2023/10/03 03:25:43;;;;;;;38.78;24.67;;;16.70;99.90;;;;;;4810035;29;20133;-77
2023/10/03 03:28:15;;;;;;;37.08;24.38;;;16.70;99.90;;;;;;4811052;29;20085;-77
2023/10/03 03:30:49;;;;;;;35.30;23.30;;;16.70;99.90;;;;;;4800997;29;20139;-78
2023/10/03 03:33:19;;;;;;;36.85;23.88;;;16.70;99.90;;;;;;4802739;29;20050;-78
2023/10/03 03:35:46;;;;;;;32.80;23.05;;;16.70;99.90;;;;;;4794796;29;20046;-77
2023/10/03 03:38:15;;;;;;;34.58;23.33;;;16.70;99.90;;;;;;4803324;29;20128;-77
2023/10/03 03:40:55;;;;;;;35.92;23.92;;;16.70;99.90;;;;;;4819883;29;20038;-77
2023/10/03 03:43:21;;;;;;;37.45;24.73;;;16.80;99.90;;;;;;4815337;29;20042;-77
2023/10/03 03:45:48;;;;;;;33.20;22.55;;;16.80;99.90;;;;;;4797749;29;20072;-77
2023/10/03 03:48:14;;;;;;;34.90;23.58;;;16.80;99.90;;;;;;4807785;29;20121;-78
2023/10/03 03:50:40;;;;;;;37.55;24.10;;;16.80;99.90;;;;;;4818441;29;20050;-78
2023/10/03 03:53:10;;;;;;;35.88;23.88;;;16.80;99.90;;;;;;4813305;29;20050;-77
2023/10/03 03:55:37;;;;;;;33.72;23.42;;;16.90;99.90;;;;;;4810282;29;20046;-77
2023/10/03 03:58:12;;;;;;;34.67;23.52;;;16.90;99.90;;;;;;4809373;29;20061;-77
2023/10/03 04:00:38;;;;;;;33.33;23.73;;;16.90;99.90;;;;;;4816700;29;20050;-77
2023/10/03 04:03:11;;;;;;;31.30;21.80;;;16.90;99.90;;;;;;4810210;29;20042;-77
2023/10/03 04:05:37;;;;;;;34.75;23.05;;;16.90;99.90;;;;;;4811826;29;20047;-78
2023/10/03 04:08:04;;;;;;;37.42;23.95;;;17.00;99.90;;;;;;4789829;29;20042;-77
2023/10/03 04:10:30;;;;;;;37.08;22.88;;;16.90;99.90;;;;;;4814832;29;20051;-77
2023/10/03 04:12:56;;;;;;;34.90;22.88;;;16.90;99.90;;;;;;4807359;29;20075;-77
2023/10/03 04:15:23;;;;;;;33.28;23.40;;;16.90;99.90;;;;;;4807252;29;20042;-77
2023/10/03 04:17:49;;;;;;;31.63;22.83;;;16.90;99.90;;;;;;4802756;29;20043;-77
2023/10/03 04:22:51;;;;;;;32.83;22.08;;;16.90;99.90;;;;;;4807419;29;20141;-77
2023/10/03 04:25:24;;;;;;;30.25;21.55;;;16.90;99.90;;;;;;4806912;29;20065;-77
2023/10/03 04:27:53;;;;;;;31.88;22.27;;;16.90;99.90;;;;;;4809029;29;20104;-77
2023/10/03 04:30:20;;;;;;;34.92;23.50;;;16.90;99.90;;;;;;4808347;29;20049;-77
2023/10/03 04:32:47;;;;;;;33.38;22.10;;;17.00;99.90;;;;;;4788941;29;20054;-77
2023/10/03 04:35:18;;;;;;;30.33;21.58;;;17.00;99.90;;;;;;4796091;29;20414;-77
2023/10/03 04:37:46;;;;;;;31.40;20.50;;;17.00;99.90;;;;;;4808643;29;20047;-78
2023/10/03 04:40:16;;;;;;;28.52;19.70;;;17.00;99.90;;;;;;4814870;29;20046;-78
2023/10/03 04:42:45;;;;;;;34.80;21.02;;;17.10;99.90;;;;;;4812837;29;20049;-78
2023/10/03 04:45:14;;;;;;;30.33;20.27;;;17.10;99.90;;;;;;4828687;29;20050;-78
2023/10/03 04:47:45;;;;;;;30.55;18.63;;;17.20;99.90;;;;;;4795093;29;20047;-78
2023/10/03 04:50:11;;;;;;;31.42;20.35;;;17.30;99.90;;;;;;4812015;29;20046;-77
2023/10/03 04:52:41;;;;;;;30.23;19.40;;;17.30;99.90;;;;;;4794493;29;20046;-78
2023/10/03 04:55:07;;;;;;;32.08;19.42;;;17.40;99.90;;;;;;4807122;29;20122;-78
2023/10/03 04:57:33;;;;;;;31.42;19.70;;;17.50;99.90;;;;;;4811925;29;20409;-78
2023/10/03 05:00:04;;;;;;;28.35;18.60;;;17.60;99.90;;;;;;4820841;29;20042;-78
2023/10/03 05:02:30;;;;;;;32.58;20.23;;;17.60;99.90;;;;;;4814460;29;20129;-78
2023/10/03 05:04:55;;;;;;;30.45;19.65;;;17.60;99.90;;;;;;4803410;29;20070;-77
2023/10/03 05:07:25;;;;;;;27.95;19.40;;;17.70;99.90;;;;;;4824040;29;20073;-78
2023/10/03 05:09:51;;;;;;;29.48;18.60;;;17.70;99.90;;;;;;4812839;29;20408;-78
2023/10/03 05:12:18;;;;;;;25.70;18.05;;;17.70;99.90;;;;;;4811504;29;20046;-78
2023/10/03 05:14:46;;;;;;;26.65;18.05;;;17.70;99.90;;;;;;4798690;29;20075;-78
2023/10/03 05:17:13;;;;;;;30.20;18.20;;;17.80;99.90;;;;;;4810947;29;20047;-77
2023/10/03 05:19:39;;;;;;;30.35;18.20;;;17.80;99.90;;;;;;4795782;29;20046;-78
2023/10/03 05:22:08;;;;;;;30.00;17.10;;;17.80;99.90;;;;;;4797915;29;20051;-77
2023/10/03 05:24:34;;;;;;;25.20;15.85;;;17.80;99.90;;;;;;4798041;29;20034;-78
2023/10/03 05:27:00;;;;;;;29.42;17.88;;;17.80;99.90;;;;;;4815334;29;20133;-77
2023/10/03 05:29:26;;;;;;;25.80;17.35;;;17.80;99.90;;;;;;4801526;29;20042;-78
2023/10/03 05:31:52;;;;;;;29.20;16.42;;;17.80;99.90;;;;;;4810756;29;20050;-78
2023/10/03 05:34:20;;;;;;;31.25;17.58;;;17.80;99.90;;;;;;4805541;29;20115;-78
2023/10/03 05:36:49;;;;;;;26.13;16.88;;;17.80;99.90;;;;;;4801485;29;20046;-78
2023/10/03 05:39:16;;;;;;;30.55;17.85;;;17.80;99.90;;;;;;4819519;29;20039;-78
2023/10/03 05:41:42;;;;;;;31.77;17.15;;;17.80;99.90;;;;;;4795279;29;20034;-80
2023/10/03 05:44:12;;;;;;;30.17;17.23;;;17.80;99.90;;;;;;4800381;29;20046;-79
2023/10/03 05:46:42;;;;;;;26.95;17.45;;;17.80;99.90;;;;;;4799579;29;20053;-78
2023/10/03 05:49:11;;;;;;;27.27;15.80;;;17.90;99.90;;;;;;4818490;29;20050;-78
2023/10/03 05:51:37;;;;;;;26.15;16.40;;;17.90;99.90;;;;;;4818702;29;20066;-78
2023/10/03 05:54:05;;;;;;;24.85;14.98;;;17.90;99.90;;;;;;4828706;29;20053;-80
2023/10/03 05:56:31;;;;;;;25.95;14.25;;;17.90;99.90;;;;;;4835080;29;20046;-79
2023/10/03 05:58:59;;;;;;;24.13;14.82;;;17.90;99.90;;;;;;4809730;29;20042;-78
2023/10/03 06:01:24;;;;;;;24.02;14.32;;;17.90;99.90;;;;;;4819248;29;20058;-79
2023/10/03 06:03:50;;;;;;;21.17;11.32;;;17.90;99.90;;;;;;4823111;29;20038;-78
2023/10/03 06:06:16;;;;;;;21.90;10.82;;;17.90;99.90;;;;;;4807718;29;20042;-78
2023/10/03 06:08:41;;;;;;;16.10;9.07;;;17.80;99.90;;;;;;4805633;29;20077;-78
2023/10/03 06:11:07;;;;;;;18.70;9.52;;;17.80;99.90;;;;;;4813468;29;20050;-78
2023/10/03 06:13:32;;;;;;;19.63;8.40;;;17.80;99.90;;;;;;4833847;29;20046;-78
2023/10/03 06:15:59;;;;;;;20.75;9.27;;;17.80;99.90;;;;;;4834091;29;20050;-78
2023/10/03 06:18:27;;;;;;;17.10;8.02;;;17.70;99.90;;;;;;4837358;29;20052;-78
2023/10/03 06:20:52;;;;;;;19.85;8.85;;;17.70;99.90;;;;;;4805310;29;20054;-78
2023/10/03 06:23:18;;;;;;;18.80;8.55;;;17.70;99.90;;;;;;4813677;29;20068;-79
2023/10/03 06:25:44;;;;;;;20.25;9.25;;;17.70;99.90;;;;;;4792921;29;20510;-79
2023/10/03 06:28:09;;;;;;;21.35;9.52;;;17.70;99.90;;;;;;4794740;29;20051;-78
2023/10/03 06:30:38;;;;;;;19.90;8.45;;;17.70;99.90;;;;;;4798690;29;20410;-78
2023/10/03 06:33:05;;;;;;;19.30;9.00;;;17.70;99.90;;;;;;4819796;29;20387;-79
2023/10/03 06:35:32;;;;;;;19.85;9.35;;;17.70;99.90;;;;;;4817468;29;20081;-78
2023/10/03 06:37:57;;;;;;;17.55;8.45;;;17.60;99.90;;;;;;4811360;29;20102;-78
2023/10/03 06:40:23;;;;;;;17.20;8.38;;;17.60;99.90;;;;;;4803894;29;20544;-78
2023/10/03 06:42:48;;;;;;;17.38;8.60;;;17.60;99.90;;;;;;4826599;29;20046;-78
2023/10/03 06:45:14;;;;;;;19.85;8.50;;;17.60;99.90;;;;;;4805838;29;20035;-79
2023/10/03 06:47:40;;;;;;;16.05;7.95;;;17.60;99.90;;;;;;4815170;29;20057;-77
2023/10/03 06:50:06;;;;;;;16.63;8.35;;;17.60;99.90;;;;;;4811889;29;20494;-77
2023/10/03 06:52:34;;;;;;;16.25;7.78;;;17.60;99.90;;;;;;4808695;29;20074;-78
2023/10/03 06:55:01;;;;;;;16.38;8.07;;;17.60;99.90;;;;;;4787069;29;20111;-78
2023/10/03 06:57:27;;;;;;;16.58;8.70;;;17.60;99.90;;;;;;4801317;29;20047;-77
2023/10/03 06:59:56;;;;;;;18.23;8.15;;;17.70;99.90;;;;;;4805152;29;20043;-79
2023/10/03 07:02:22;;;;;;;14.52;8.15;;;17.70;99.90;;;;;;4793336;29;20034;-77
2023/10/03 07:04:47;;;;;;;16.13;7.75;;;17.70;99.90;;;;;;4796298;29;20095;-78
2023/10/03 07:07:13;;;;;;;15.57;7.85;;;17.70;99.90;;;;;;4809982;29;20148;-78
2023/10/03 07:09:39;;;;;;;14.07;7.80;;;17.70;99.90;;;;;;4780879;29;20054;-78
2023/10/03 07:12:08;;;;;;;13.85;7.82;;;17.80;99.90;;;;;;4807826;29;20046;-78
2023/10/03 07:14:37;;;;;;;14.52;7.43;;;17.80;99.90;;;;;;4819389;29;20057;-78
2023/10/03 07:17:03;;;;;;;14.68;7.50;;;17.90;99.90;;;;;;4812342;29;20053;-79
2023/10/03 07:19:31;;;;;;;16.88;9.20;;;17.90;99.90;;;;;;4799099;29;20378;-80
2023/10/03 07:21:57;;;;;;;14.35;8.68;;;17.80;99.90;;;;;;4796030;29;20061;-79
2023/10/03 07:24:26;;;;;;;16.42;8.50;;;17.80;99.90;;;;;;4811925;29;20034;-79
2023/10/03 07:26:51;;;;;;;14.85;8.50;;;17.70;99.90;;;;;;4807791;29;20105;-80
2023/10/03 07:29:17;;;;;;;13.13;8.57;;;17.60;99.90;;;;;;4815727;29;20414;-80
2023/10/03 07:31:43;;;;;;;14.82;8.60;;;17.60;99.90;;;;;;4823148;29;20410;-80
2023/10/03 07:34:09;;;;;;;16.52;9.15;;;17.50;99.90;;;;;;4814967;29;20042;-79
2023/10/03 07:36:36;;;;;;;17.67;9.32;;;17.50;99.90;;;;;;4824687;29;20129;-80
2023/10/03 07:39:03;;;;;;;15.55;9.32;;;17.40;99.90;;;;;;4813219;29;20042;-78
2023/10/03 07:41:29;;;;;;;16.88;9.55;;;17.50;99.90;;;;;;4793597;29;20031;-79
2023/10/03 07:43:54;;;;;;;16.00;9.20;;;17.50;99.90;;;;;;4793631;29;20557;-80
2023/10/03 07:46:21;;;;;;;19.20;9.18;;;17.50;99.90;;;;;;4800064;29;20129;-79
2023/10/03 07:48:49;;;;;;;15.70;8.65;;;17.50;99.90;;;;;;4817887;29;20062;-79
2023/10/03 07:51:29;;;;;;;16.70;8.75;;;17.50;99.90;;;;;;4818598;29;20066;-80
2023/10/03 07:53:55;;;;;;;15.95;8.93;;;17.50;99.90;;;;;;4803041;29;20042;-80
2023/10/03 07:56:29;;;;;;;17.58;9.18;;;17.50;99.90;;;;;;4818522;29;20039;-81
2023/10/03 07:58:56;;;;;;;24.23;10.55;;;17.50;99.90;;;;;;4821514;29;20058;-80
2023/10/03 08:01:26;;;;;;;16.08;10.18;;;17.50;99.90;;;;;;4823246;29;20097;-82
2023/10/03 08:03:56;;;;;;;14.93;10.23;;;17.40;99.90;;;;;;4815211;29;20063;-82
2023/10/03 08:06:24;;;;;;;22.45;11.30;;;17.30;99.90;;;;;;4820588;29;20046;-81
2023/10/03 08:08:55;;;;;;;19.13;10.35;;;17.30;99.90;;;;;;4815054;29;20050;-78
2023/10/03 08:11:28;;;;;;;15.77;7.65;;;17.20;99.90;;;;;;4815907;29;20125;-79
2023/10/03 08:13:58;;;;;;;15.95;7.18;;;17.10;99.90;;;;;;4819923;29;20510;-79
2023/10/03 08:16:27;;;;;;;17.90;6.97;;;17.10;99.90;;;;;;4786215;29;20179;-79
2023/10/03 08:18:58;;;;;;;17.23;6.05;;;17.00;99.90;;;;;;4808236;29;20046;-79
2023/10/03 08:21:28;;;;;;;14.45;6.68;;;17.10;99.90;;;;;;4815554;29;20518;-79
2023/10/03 08:23:58;;;;;;;15.60;6.00;;;17.10;99.90;;;;;;4820175;29;20071;-79
2023/10/03 08:26:27;;;;;;;13.38;5.90;;;17.20;99.90;;;;;;4822550;29;20045;-80
2023/10/03 08:28:59;;;;;;;19.27;6.05;;;17.10;99.90;;;;;;4816968;29;20084;-79
2023/10/03 08:31:28;;;;;;;14.32;5.40;;;17.10;99.90;;;;;;4795578;29;20061;-79
2023/10/03 08:33:57;;;;;;;11.20;4.53;;;17.10;99.90;;;;;;4810107;29;20409;-81
2023/10/03 08:36:27;;;;;;;12.02;4.45;;;17.10;99.90;;;;;;4816482;29;20058;-81
2023/10/03 08:39:04;;;;;;;13.18;3.90;;;17.00;99.90;;;;;;4825278;29;20066;-81
2023/10/03 08:41:46;;;;;;;11.77;3.97;;;17.00;99.90;;;;;;4824688;29;20054;-81
2023/10/03 08:44:12;;;;;;;13.45;4.30;;;17.00;99.90;;;;;;4813817;29;20042;-81
2023/10/03 08:46:48;;;;;;;12.32;3.92;;;16.90;99.90;;;;;;4809275;29;20057;-80
2023/10/03 08:49:17;;;;;;;9.57;3.72;;;16.90;99.90;;;;;;4811319;29;20516;-80
2023/10/03 08:51:46;;;;;;;10.27;3.72;;;16.90;99.90;;;;;;4810988;29;20102;-80
2023/10/03 08:54:13;;;;;;;8.95;3.53;;;16.80;99.90;;;;;;4806055;29;20133;-79
2023/10/03 08:56:41;;;;;;;8.70;3.50;;;16.80;99.90;;;;;;4812520;29;20331;-80
2023/10/03 08:59:08;;;;;;;9.80;3.42;;;16.80;99.90;;;;;;4812162;29;20133;-80
2023/10/03 09:01:43;;;;;;;10.88;3.50;;;16.80;99.90;;;;;;4812178;29;20522;-80
2023/10/03 09:04:15;;;;;;;9.82;2.83;;;16.70;99.90;;;;;;4813433;29;20405;-80
2023/10/03 13:41:31;;;;;;;11.45;3.22;;;16.50;99.90;;;;;;5088025;23;20062;-82
2023/10/03 13:52:55;;;;;;;;;;;;;;;;;;;;;
2023/10/03 17:01:04;;;;;;;14.15;4.85;;;13.30;99.90;;;;;;4826080;29;20058;-81
2023/10/03 17:08:27;;;;;;;;;;;;;;;;;;;;;
2023/10/03 17:11:55;;;;;;;;;;;;;;;;;;;;;
2023/10/03 17:26:56;;;;;;;16.98;5.80;;;13.00;99.90;;;;;;4682937;30;20422;-82
2023/10/03 17:33:34;;;;;;;13.43;4.72;;;13.00;99.90;;;;;;4723219;30;20510;-82
2023/10/03 18:15:34;;;;;;;10.95;3.00;;;12.70;99.90;;;;;;5659778;23;20028;-77
2023/10/03 18:17:59;;;;;;;12.88;3.67;;;12.60;99.90;;;;;;4816287;29;20055;-77
2023/10/03 18:20:25;;;;;;;12.23;3.28;;;12.50;99.90;;;;;;4808281;29;20566;-78
2023/10/03 18:22:51;;;;;;;12.05;3.47;;;12.40;99.90;;;;;;4798316;29;20044;-78
2023/10/03 18:25:16;;;;;;;15.32;3.53;;;12.40;99.90;;;;;;4795375;29;20042;-78
2023/10/03 18:27:44;;;;;;;23.08;4.65;;;12.30;99.90;;;;;;4782550;29;20035;-78
2023/10/03 18:30:12;;;;;;;20.45;4.80;;;12.30;99.90;;;;;;4807305;29;20058;-78
2023/10/03 18:32:37;;;;;;;14.95;4.43;;;12.20;99.90;;;;;;4796652;29;20050;-78
2023/10/03 18:35:03;;;;;;;16.65;4.65;;;12.20;99.90;;;;;;4794364;29;20052;-78
2023/10/03 18:37:33;;;;;;;19.90;4.65;;;12.10;99.90;;;;;;4799486;29;20050;-78
2023/10/03 18:39:59;;;;;;;22.92;5.22;;;12.10;99.90;;;;;;4778605;29;20039;-78
2023/10/03 18:42:25;;;;;;;12.23;4.82;;;12.00;99.90;;;;;;4778699;29;20070;-78
2023/10/03 18:44:50;;;;;;;18.80;5.20;;;12.00;99.90;;;;;;4778938;29;20104;-78
2023/10/03 18:47:16;;;;;;;13.10;5.10;;;12.00;99.90;;;;;;4793461;29;20055;-78
2023/10/03 18:49:42;;;;;;;19.00;6.20;;;11.90;99.90;;;;;;4778588;29;20044;-79
2023/10/03 18:52:08;;;;;;;11.68;5.13;;;11.80;99.90;;;;;;4801845;29;20046;-78
2023/10/03 18:54:33;;;;;;;15.07;5.90;;;11.80;99.90;;;;;;4795342;29;20062;-78
2023/10/03 18:56:59;;;;;;;12.40;5.35;;;11.80;99.90;;;;;;4794296;29;20431;-78
2023/10/03 18:59:25;;;;;;;11.65;4.63;;;11.70;99.90;;;;;;4795129;29;20410;-78
2023/10/03 19:01:50;;;;;;;13.57;5.32;;;11.60;99.90;;;;;;4792692;29;20135;-78
2023/10/03 19:04:17;;;;;;;20.13;7.82;;;11.60;99.90;;;;;;4801692;29;20043;-78
2023/10/03 19:06:42;;;;;;;14.32;6.80;;;11.50;99.90;;;;;;4777107;30;20043;-78
2023/10/03 19:09:12;;;;;;;15.10;5.05;;;11.50;99.90;;;;;;4776772;30;20051;-79
2023/10/03 19:11:37;;;;;;;13.05;5.75;;;11.50;99.90;;;;;;4777437;30;20137;-78
2023/10/03 19:14:03;;;;;;;16.30;7.03;;;11.40;99.90;;;;;;4763296;30;20078;-78
2023/10/03 19:16:28;;;;;;;17.80;6.18;;;11.40;99.90;;;;;;4779348;29;20043;-79
2023/10/03 19:18:54;;;;;;;14.95;6.38;;;11.40;99.90;;;;;;4803454;29;20106;-79
2023/10/03 19:21:21;;;;;;;16.00;6.70;;;11.40;99.90;;;;;;4795851;29;20053;-78
2023/10/03 19:23:49;;;;;;;13.60;6.57;;;11.40;99.90;;;;;;4814249;29;20046;-78
2023/10/03 19:26:15;;;;;;;19.88;6.45;;;11.30;99.90;;;;;;4814823;29;20049;-78
2023/10/03 19:28:41;;;;;;;10.65;5.30;;;11.30;99.90;;;;;;4794168;29;20035;-78
2023/10/03 19:31:11;;;;;;;19.65;7.00;;;11.30;99.90;;;;;;4810510;29;20062;-79
2023/10/03 19:33:38;;;;;;;19.83;6.68;;;11.30;99.90;;;;;;4800748;29;20043;-78
2023/10/03 19:36:09;;;;;;;14.18;5.20;;;11.30;99.90;;;;;;4813542;29;20091;-78
2023/10/03 19:38:34;;;;;;;9.80;4.20;;;11.30;99.90;;;;;;4814841;29;20046;-78
2023/10/03 19:41:00;;;;;;;14.23;4.85;;;11.30;99.90;;;;;;4816100;29;20066;-78
2023/10/03 19:43:25;;;;;;;12.95;4.45;;;11.20;99.90;;;;;;4805062;29;20566;-78
2023/10/03 19:45:52;;;;;;;18.10;6.80;;;11.20;99.90;;;;;;4797783;29;20046;-78
2023/10/03 19:48:19;;;;;;;19.58;6.82;;;11.20;99.90;;;;;;4798488;29;20061;-78
2023/10/03 19:50:44;;;;;;;13.73;5.90;;;11.20;99.90;;;;;;4794841;29;20047;-78
2023/10/03 19:53:10;;;;;;;8.95;5.28;;;11.20;99.90;;;;;;4800214;29;20521;-78
2023/10/03 19:55:38;;;;;;;17.15;6.50;;;11.20;99.90;;;;;;4793481;29;20047;-79
2023/10/03 19:58:04;;;;;;;19.20;7.93;;;11.20;99.90;;;;;;4809087;29;20494;-78
2023/10/03 20:00:30;;;;;;;29.02;9.77;;;11.20;99.90;;;;;;4793352;29;20091;-78
2023/10/03 20:02:57;;;;;;;14.43;7.40;;;11.20;99.90;;;;;;4803604;29;20100;-79
2023/10/03 20:05:24;;;;;;;19.00;7.80;;;11.20;99.90;;;;;;4776151;29;20049;-78
2023/10/03 20:07:50;;;;;;;16.48;6.95;;;11.20;99.90;;;;;;4771600;29;20042;-77
2023/10/03 20:10:16;;;;;;;17.85;8.32;;;11.20;99.90;;;;;;4794561;29;20352;-77
2023/10/03 20:12:44;;;;;;;18.88;7.57;;;11.20;99.90;;;;;;4754874;30;20086;-77
2023/10/03 20:15:11;;;;;;;21.17;9.02;;;11.20;99.90;;;;;;4785419;29;20074;-77
2023/10/03 20:17:38;;;;;;;14.73;6.68;;;11.20;99.90;;;;;;4793438;29;20061;-77
2023/10/03 20:20:10;;;;;;;19.98;8.95;;;11.20;99.90;;;;;;4791541;29;20100;-77
2023/10/03 20:22:45;;;;;;;21.80;9.93;;;11.20;99.90;;;;;;4785293;29;20054;-77
2023/10/03 20:25:13;;;;;;;21.30;9.10;;;11.20;99.90;;;;;;4786878;29;20406;-77
2023/10/03 20:27:39;;;;;;;21.35;8.98;;;11.20;99.90;;;;;;4778956;29;20134;-77
2023/10/03 20:30:05;;;;;;;19.80;9.52;;;11.20;99.90;;;;;;4777132;29;20651;-77
2023/10/03 20:32:31;;;;;;;14.38;9.05;;;11.30;99.90;;;;;;4787470;29;20082;-77
2023/10/03 20:34:57;;;;;;;25.17;10.40;;;11.30;99.90;;;;;;4773209;29;20089;-77
2023/10/03 20:37:24;;;;;;;23.73;11.15;;;11.30;99.90;;;;;;4780087;29;20051;-76
2023/10/03 20:39:56;;;;;;;18.98;8.05;;;11.30;99.90;;;;;;4794748;29;20092;-77
2023/10/03 20:42:26;;;;;;;18.48;9.85;;;11.30;99.90;;;;;;4784864;29;20490;-77
2023/10/03 20:44:55;;;;;;;25.08;11.10;;;11.30;99.90;;;;;;4770933;29;20055;-77
2023/10/03 20:47:21;;;;;;;24.48;10.55;;;11.30;99.90;;;;;;4772521;29;20115;-77
2023/10/03 20:49:51;;;;;;;21.42;9.82;;;11.30;99.90;;;;;;4805192;29;20042;-76
2023/10/03 20:52:18;;;;;;;36.83;14.23;;;11.30;99.90;;;;;;4794623;29;20051;-77
2023/10/03 20:54:44;;;;;;;27.42;11.63;;;11.20;99.90;;;;;;4785600;29;20042;-77
2023/10/03 20:57:09;;;;;;;27.98;12.38;;;11.20;99.90;;;;;;4786587;29;20046;-77
2023/10/03 20:59:35;;;;;;;26.45;12.77;;;11.20;99.90;;;;;;4797362;29;20043;-77
2023/10/03 21:02:01;;;;;;;24.13;11.52;;;11.20;99.90;;;;;;4782407;29;20039;-77
2023/10/03 21:04:27;;;;;;;23.92;10.50;;;11.20;99.90;;;;;;4777250;29;20078;-77
2023/10/03 21:06:54;;;;;;;40.03;15.20;;;11.30;99.90;;;;;;4781084;29;20046;-77
2023/10/03 21:09:22;;;;;;;26.73;13.13;;;11.30;99.90;;;;;;4780106;29;20078;-77
2023/10/03 21:11:48;;;;;;;34.78;16.58;;;11.30;99.90;;;;;;4783940;29;20058;-77
2023/10/03 21:14:14;;;;;;;25.10;11.32;;;11.40;99.90;;;;;;4793738;29;20054;-77
2023/10/03 21:16:40;;;;;;;21.27;11.55;;;11.40;99.90;;;;;;4779382;29;20046;-77
2023/10/03 21:19:06;;;;;;;29.95;11.82;;;11.50;99.90;;;;;;4796683;29;20053;-77
2023/10/03 21:21:33;;;;;;;15.20;8.65;;;11.50;99.90;;;;;;4782448;29;20043;-78
2023/10/03 21:23:59;;;;;;;15.73;8.63;;;11.50;99.90;;;;;;4779863;29;20469;-78
2023/10/03 21:26:25;;;;;;;26.05;10.90;;;11.40;99.90;;;;;;4781466;29;20148;-77
2023/10/03 21:28:51;;;;;;;22.38;10.07;;;11.50;99.90;;;;;;4790077;29;20050;-77
2023/10/03 21:31:17;;;;;;;24.92;9.95;;;11.50;99.90;;;;;;4792409;29;20574;-77
2023/10/03 21:33:42;;;;;;;25.80;8.82;;;11.50;99.90;;;;;;4790886;29;20047;-77
2023/10/03 21:36:08;;;;;;;22.02;8.70;;;11.40;99.90;;;;;;4790945;29;20049;-77
2023/10/03 21:38:34;;;;;;;18.17;7.95;;;11.40;99.90;;;;;;4767438;29;20039;-77
2023/10/03 21:40:59;;;;;;;13.65;5.63;;;11.40;99.90;;;;;;4777923;30;20043;-77
2023/10/03 21:43:25;;;;;;;20.00;9.52;;;11.40;99.90;;;;;;4794251;29;20055;-77
2023/10/03 21:45:50;;;;;;;13.15;6.88;;;11.40;99.90;;;;;;4790758;29;20045;-77
2023/10/03 21:48:16;;;;;;;14.48;6.90;;;11.40;99.90;;;;;;4774942;29;20465;-77
2023/10/03 21:50:42;;;;;;;19.88;7.60;;;11.40;99.90;;;;;;4786350;29;20425;-77
2023/10/03 21:53:09;;;;;;;19.60;8.10;;;11.30;99.90;;;;;;4776725;29;20047;-77
2023/10/03 21:55:35;;;;;;;14.70;7.10;;;11.30;99.90;;;;;;4789640;29;20130;-77
2023/10/03 21:58:01;;;;;;;14.55;5.43;;;11.40;99.90;;;;;;4795460;29;20099;-77
2023/10/03 22:00:35;;;;;;;15.60;7.35;;;11.40;99.90;;;;;;4800078;29;20051;-76
2023/10/03 22:03:01;;;;;;;17.95;8.60;;;11.40;99.90;;;;;;4769674;30;20039;-77
2023/10/03 22:05:27;;;;;;;12.75;8.10;;;11.40;99.90;;;;;;4779162;29;20727;-77
2023/10/03 22:07:54;;;;;;;14.63;7.05;;;11.50;99.90;;;;;;4795822;29;20144;-77
2023/10/03 22:10:19;;;;;;;19.13;6.72;;;11.50;99.90;;;;;;4777517;29;20521;-77
2023/10/03 22:12:49;;;;;;;15.40;7.88;;;11.50;99.90;;;;;;4790590;29;20246;-77
2023/10/03 22:15:15;;;;;;;13.98;6.70;;;11.60;99.90;;;;;;4794279;29;20141;-77
2023/10/03 22:17:42;;;;;;;17.08;8.68;;;11.60;99.90;;;;;;4786842;29;20139;-77
2023/10/03 22:20:11;;;;;;;16.58;7.57;;;11.60;99.90;;;;;;4782709;29;20042;-77
2023/10/03 22:22:37;;;;;;;12.93;6.72;;;11.60;99.90;;;;;;4772740;29;20057;-77
2023/10/03 22:25:05;;;;;;;18.40;8.25;;;11.70;99.90;;;;;;4790847;29;20424;-77
2023/10/03 22:27:31;;;;;;;24.38;11.57;;;11.70;99.90;;;;;;4799950;29;20039;-77
2023/10/03 22:29:57;;;;;;;22.45;9.48;;;11.70;99.90;;;;;;4785808;29;20080;-77
2023/10/03 22:32:23;;;;;;;10.95;4.88;;;11.80;99.90;;;;;;4796078;29;20518;-76
2023/10/03 22:34:51;;;;;;;13.45;5.72;;;11.80;99.90;;;;;;4782472;29;20051;-77
2023/10/03 22:37:17;;;;;;;19.65;7.07;;;11.90;99.90;;;;;;4788771;29;20477;-77
2023/10/03 22:39:43;;;;;;;14.02;6.00;;;11.90;99.90;;;;;;4782911;29;20038;-77
2023/10/03 22:42:08;;;;;;;14.98;6.35;;;12.00;99.90;;;;;;4789375;29;20054;-77
2023/10/03 22:44:34;;;;;;;19.63;7.53;;;12.00;99.90;;;;;;4796367;29;20065;-77
2023/10/03 22:46:59;;;;;;;21.85;8.82;;;12.00;99.90;;;;;;4775027;29;20042;-77
2023/10/03 22:49:25;;;;;;;28.17;10.80;;;12.10;99.90;;;;;;4788885;29;20043;-77
2023/10/03 22:51:51;;;;;;;26.60;10.40;;;12.10;99.90;;;;;;4788524;29;20514;-76
2023/10/03 22:54:16;;;;;;;23.98;10.25;;;12.10;99.90;;;;;;4774716;29;20499;-77
2023/10/03 22:56:42;;;;;;;20.92;10.13;;;12.10;99.90;;;;;;4789398;29;20055;-77
2023/10/03 22:59:10;;;;;;;27.13;11.80;;;12.10;99.90;;;;;;4774090;29;20494;-77
2023/10/03 23:01:36;;;;;;;18.95;8.20;;;12.20;99.90;;;;;;4803396;29;20046;-77
2023/10/03 23:04:03;;;;;;;14.80;6.93;;;12.20;99.90;;;;;;4776493;29;20456;-77
2023/10/03 23:06:29;;;;;;;19.95;7.90;;;12.30;99.90;;;;;;4805684;29;20054;-77
2023/10/03 23:08:54;;;;;;;26.33;10.30;;;12.30;99.90;;;;;;4794562;29;20063;-77
2023/10/03 23:11:23;;;;;;;20.08;7.20;;;12.20;99.90;;;;;;4789559;29;20076;-78
2023/10/03 23:13:48;;;;;;;17.65;6.95;;;12.30;99.90;;;;;;4777416;30;20048;-77
2023/10/03 23:16:15;;;;;;;20.23;7.65;;;12.30;99.90;;;;;;4784608;29;20057;-77
2023/10/03 23:18:41;;;;;;;21.58;9.27;;;12.30;99.90;;;;;;4788587;29;20077;-77
2023/10/03 23:21:06;;;;;;;16.08;8.10;;;12.20;99.90;;;;;;4789255;29;20432;-77
2023/10/03 23:23:32;;;;;;;26.65;11.02;;;12.20;99.90;;;;;;4788607;29;20510;-77
2023/10/03 23:25:58;;;;;;;29.98;14.25;;;12.20;99.90;;;;;;4798464;29;20039;-76
2023/10/03 23:28:24;;;;;;;29.17;12.63;;;12.20;99.90;;;;;;4797229;29;20062;-77
2023/10/03 23:30:51;;;;;;;23.08;9.15;;;12.20;99.90;;;;;;4799606;29;20054;-77
2023/10/03 23:33:19;;;;;;;22.85;11.18;;;12.20;99.90;;;;;;4795524;29;20572;-77
2023/10/03 23:35:45;;;;;;;24.88;10.70;;;12.20;99.90;;;;;;4778047;29;20047;-77
2023/10/03 23:38:12;;;;;;;12.00;6.68;;;12.20;99.90;;;;;;4777864;29;20418;-77
2023/10/03 23:40:40;;;;;;;24.88;9.95;;;12.20;99.90;;;;;;4771706;29;20050;-77
2023/10/03 23:43:06;;;;;;;24.77;8.73;;;12.30;99.90;;;;;;4767115;29;20034;-78
2023/10/03 23:45:35;;;;;;;27.05;8.90;;;12.30;99.90;;;;;;4791741;29;20043;-77
2023/10/03 23:48:02;;;;;;;23.20;7.82;;;12.30;99.90;;;;;;4786316;29;20046;-77
2023/10/03 23:50:31;;;;;;;21.92;7.82;;;12.30;99.90;;;;;;4790156;29;20402;-78
2023/10/03 23:52:57;;;;;;;19.42;7.85;;;12.20;99.90;;;;;;4795847;29;20053;-77
2023/10/03 23:55:23;;;;;;;19.15;6.45;;;12.30;99.90;;;;;;4781407;29;20571;-78
2023/10/03 23:57:50;;;;;;;19.23;6.50;;;12.30;99.90;;;;;;4774205;29;20057;-78
